Time;durP1;ratioP1;P1;durP2;ratioP2;P2;SDS_P1;SDS_P2;PMS_P1;PMS_P2;Temp;Humidity;BMP_temperature;BMP_pressure;BME280_temperature;BME280_humidity;BME280_pressure;Samples;Min_cycle;Max_cycle;Signal;HPM_P1;HPM_P2
2022/08/16 00:02:06;;;;;;;26.13;23.30;;;20.30;99.90;;;;;;5096717;28;20067;-65
2022/08/16 00:04:32;;;;;;;25.60;23.05;;;20.40;99.90;;;;;;5096843;28;20078;-65
2022/08/16 00:06:58;;;;;;;33.80;24.60;;;20.30;99.90;;;;;;5096327;28;20040;-65
2022/08/16 00:09:24;;;;;;;25.63;22.88;;;20.30;99.90;;;;;;5076865;28;20100;-65
2022/08/16 00:11:51;;;;;;;26.50;23.23;;;20.30;99.90;;;;;;5114601;28;20047;-66
2022/08/16 00:14:23;;;;;;;26.15;23.35;;;20.40;99.90;;;;;;5096342;28;20063;-65
2022/08/16 00:16:49;;;;;;;27.50;24.08;;;20.40;99.90;;;;;;5096304;28;20036;-66
2022/08/16 00:19:20;;;;;;;27.23;24.30;;;20.40;99.90;;;;;;5096309;28;20498;-65
2022/08/16 00:21:46;;;;;;;25.42;22.58;;;20.40;99.90;;;;;;5114227;28;20555;-66
2022/08/16 00:24:13;;;;;;;27.70;24.73;;;20.50;99.90;;;;;;5079102;28;20319;-66
2022/08/16 00:26:42;;;;;;;26.55;21.10;;;20.50;99.90;;;;;;5079032;28;20050;-66
2022/08/16 00:29:09;;;;;;;28.35;23.33;;;20.50;99.90;;;;;;5096117;28;20038;-66
2022/08/16 00:31:35;;;;;;;26.02;22.65;;;20.50;99.90;;;;;;5114028;28;20039;-65
2022/08/16 00:34:03;;;;;;;30.48;23.02;;;20.50;99.90;;;;;;5095797;28;20043;-65
2022/08/16 00:36:28;;;;;;;24.42;21.33;;;20.50;99.90;;;;;;5095951;28;20058;-66
2022/08/16 00:38:54;;;;;;;24.63;21.80;;;20.50;99.90;;;;;;5093345;28;20491;-65
2022/08/16 00:41:21;;;;;;;27.85;22.77;;;20.50;99.90;;;;;;5113836;28;20039;-66
2022/08/16 00:43:47;;;;;;;24.52;21.02;;;20.50;99.90;;;;;;5095592;28;20492;-67
2022/08/16 00:46:20;;;;;;;25.08;22.45;;;20.50;99.90;;;;;;5095516;28;20040;-66
2022/08/16 00:48:49;;;;;;;24.95;21.73;;;20.60;99.90;;;;;;5095592;28;20039;-66
2022/08/16 00:51:19;;;;;;;23.67;21.02;;;20.50;99.90;;;;;;5113878;28;20031;-66
2022/08/16 00:53:47;;;;;;;25.85;21.45;;;20.60;99.90;;;;;;5095381;28;20085;-67
2022/08/16 00:56:18;;;;;;;23.63;19.00;;;20.60;99.90;;;;;;5113666;28;20035;-67
2022/08/16 00:58:46;;;;;;;24.77;20.80;;;20.60;99.90;;;;;;5113433;28;20035;-67
2022/08/16 01:01:14;;;;;;;23.05;20.60;;;20.60;99.90;;;;;;5095271;28;20040;-67
2022/08/16 01:03:43;;;;;;;23.27;20.88;;;20.70;99.90;;;;;;5095397;28;20106;-66
2022/08/16 01:06:13;;;;;;;23.83;19.60;;;20.70;99.90;;;;;;5113560;28;20038;-66
2022/08/16 01:08:41;;;;;;;24.08;20.60;;;20.70;99.90;;;;;;5092649;28;20036;-66
2022/08/16 01:11:07;;;;;;;23.48;20.08;;;20.60;99.90;;;;;;5094985;28;20134;-66
2022/08/16 01:13:36;;;;;;;23.05;20.63;;;20.60;99.90;;;;;;5078047;28;20071;-66
2022/08/16 01:16:10;;;;;;;22.52;20.13;;;20.60;99.90;;;;;;5095206;28;20031;-66
2022/08/16 01:18:52;;;;;;;25.83;20.40;;;20.60;99.90;;;;;;5095258;28;20437;-66
2022/08/16 01:21:33;;;;;;;22.77;20.42;;;20.50;99.90;;;;;;5095010;28;20093;-66
2022/08/16 01:24:05;;;;;;;25.95;20.50;;;20.50;99.90;;;;;;5094885;28;20046;-66
2022/08/16 01:26:33;;;;;;;22.55;19.98;;;20.50;99.90;;;;;;5113029;28;20496;-66
2022/08/16 01:29:07;;;;;;;23.52;21.02;;;20.50;99.90;;;;;;5112959;28;20560;-66
2022/08/16 01:31:32;;;;;;;24.67;21.92;;;20.50;99.90;;;;;;5077834;28;20046;-66
2022/08/16 01:33:59;;;;;;;24.35;21.20;;;20.50;99.90;;;;;;5077688;28;20039;-66
2022/08/16 01:36:24;;;;;;;24.55;21.58;;;20.50;99.90;;;;;;5094571;28;20126;-66
2022/08/16 01:38:50;;;;;;;24.52;21.27;;;20.50;99.90;;;;;;5092551;28;20135;-66
2022/08/16 01:41:23;;;;;;;22.85;20.55;;;20.40;99.90;;;;;;5112887;28;20188;-66
2022/08/16 01:43:50;;;;;;;23.13;20.52;;;20.40;99.90;;;;;;5094634;28;20082;-66
2022/08/16 01:46:30;;;;;;;23.73;21.13;;;20.40;99.90;;;;;;5094255;28;20035;-66
2022/08/16 01:48:58;;;;;;;;;;;20.30;99.90;;;;;;5078029;28;20043;-66
2022/08/16 01:51:26;;;;;;;27.20;21.60;;;20.20;99.90;;;;;;5094614;28;19923;-66
2022/08/16 01:53:52;;;;;;;23.60;21.02;;;20.20;99.90;;;;;;5094408;28;20040;-66
2022/08/16 01:56:19;;;;;;;24.60;21.65;;;20.10;99.90;;;;;;5112667;28;20399;-66
2022/08/16 01:58:45;;;;;;;25.60;22.10;;;20.10;99.90;;;;;;5077409;28;20050;-66
2022/08/16 02:01:11;;;;;;;24.52;22.08;;;20.10;99.90;;;;;;5094486;28;20036;-65
2022/08/16 02:03:38;;;;;;;25.02;21.60;;;20.00;99.90;;;;;;5094525;28;20189;-66
2022/08/16 02:06:05;;;;;;;24.95;21.95;;;20.00;99.90;;;;;;5094463;28;20043;-66
2022/08/16 02:08:31;;;;;;;28.40;23.20;;;19.90;99.90;;;;;;5091722;28;20040;-66
2022/08/16 02:10:56;;;;;;;25.58;22.80;;;19.90;99.90;;;;;;5094023;28;20147;-66
2022/08/16 02:13:22;;;;;;;25.08;22.42;;;19.90;99.90;;;;;;5094131;28;20051;-66
2022/08/16 02:15:49;;;;;;;25.00;22.30;;;19.80;99.90;;;;;;5094609;28;20040;-66
2022/08/16 02:18:15;;;;;;;27.25;22.20;;;19.80;99.90;;;;;;5095188;28;20039;-66
2022/08/16 02:20:45;;;;;;;24.65;21.48;;;19.80;99.90;;;;;;5113314;28;20495;-66
2022/08/16 02:23:11;;;;;;;24.55;21.80;;;19.70;99.90;;;;;;5113391;28;20097;-66
2022/08/16 02:25:37;;;;;;;25.85;22.65;;;19.70;99.90;;;;;;5094970;28;20126;-66
2022/08/16 02:28:04;;;;;;;25.17;22.48;;;19.70;99.90;;;;;;5094950;28;20114;-66
2022/08/16 02:30:31;;;;;;;26.85;22.88;;;19.70;99.90;;;;;;5094919;28;20562;-66
2022/08/16 02:32:57;;;;;;;24.33;21.83;;;19.60;99.90;;;;;;5112970;28;20044;-66
2022/08/16 02:35:24;;;;;;;24.92;22.23;;;19.60;99.90;;;;;;5095136;28;20460;-66
2022/08/16 02:37:52;;;;;;;24.88;22.20;;;19.60;99.90;;;;;;5092727;28;20039;-66
2022/08/16 02:40:19;;;;;;;26.35;22.98;;;19.50;99.90;;;;;;5112967;28;20054;-66
2022/08/16 02:42:46;;;;;;;24.85;22.08;;;19.40;99.90;;;;;;5094860;28;20032;-66
2022/08/16 02:45:14;;;;;;;24.65;21.95;;;19.40;99.90;;;;;;5077392;28;20145;-66
2022/08/16 02:47:40;;;;;;;25.23;22.23;;;19.30;99.90;;;;;;5093921;28;20344;-66
2022/08/16 02:50:07;;;;;;;26.48;22.20;;;19.20;99.90;;;;;;5111888;28;20031;-66
2022/08/16 02:52:33;;;;;;;25.63;22.92;;;19.10;99.90;;;;;;5077246;28;20071;-65
2022/08/16 02:54:59;;;;;;;27.75;22.92;;;19.10;99.90;;;;;;5096295;28;20048;-66
2022/08/16 02:57:25;;;;;;;26.98;23.83;;;19.00;99.90;;;;;;5081944;28;20047;-66
2022/08/16 02:59:51;;;;;;;27.98;24.98;;;19.00;99.90;;;;;;5100494;28;20185;-67
2022/08/16 03:02:17;;;;;;;27.50;24.60;;;18.90;99.90;;;;;;5100384;28;20487;-65
2022/08/16 03:04:44;;;;;;;27.02;23.92;;;18.80;99.90;;;;;;5118779;28;20491;-66
2022/08/16 03:07:13;;;;;;;31.58;25.08;;;18.80;99.90;;;;;;5100829;28;20039;-65
2022/08/16 03:09:39;;;;;;;28.55;24.83;;;18.70;99.90;;;;;;5098994;28;20407;-66
2022/08/16 03:12:06;;;;;;;27.67;24.77;;;18.70;99.90;;;;;;5118501;28;20101;-67
2022/08/16 03:14:32;;;;;;;27.70;24.58;;;18.60;99.90;;;;;;5119028;28;20072;-67
2022/08/16 03:16:58;;;;;;;26.90;23.92;;;18.60;99.90;;;;;;5100944;28;20043;-67
2022/08/16 03:19:25;;;;;;;26.20;23.33;;;18.60;99.90;;;;;;5100702;28;20035;-67
2022/08/16 03:21:51;;;;;;;26.05;23.30;;;18.50;99.90;;;;;;5119116;28;20046;-67
2022/08/16 03:24:17;;;;;;;26.95;24.02;;;18.50;99.90;;;;;;5119056;28;20040;-67
2022/08/16 03:26:43;;;;;;;30.65;24.33;;;18.40;99.90;;;;;;5083199;28;20400;-66
2022/08/16 03:29:10;;;;;;;26.25;23.20;;;18.40;99.90;;;;;;5115779;28;20146;-67
2022/08/16 03:31:36;;;;;;;29.15;23.80;;;18.30;99.90;;;;;;5114215;28;20228;-67
2022/08/16 03:34:02;;;;;;;25.63;22.98;;;18.30;99.90;;;;;;5097206;28;20065;-67
2022/08/16 03:36:28;;;;;;;28.73;25.17;;;18.20;99.90;;;;;;5114006;28;20050;-67
2022/08/16 03:38:54;;;;;;;30.95;25.75;;;18.10;99.90;;;;;;5111530;28;20047;-67
2022/08/16 03:41:22;;;;;;;34.28;26.55;;;18.00;99.90;;;;;;5113637;28;20031;-67
2022/08/16 03:43:48;;;;;;;30.67;27.35;;;18.10;99.90;;;;;;5114908;28;20484;-66
2022/08/16 03:46:14;;;;;;;33.15;26.55;;;18.00;99.90;;;;;;5115139;28;20039;-67
2022/08/16 03:48:40;;;;;;;28.27;24.77;;;18.00;99.90;;;;;;5115290;28;20066;-67
2022/08/16 03:51:10;;;;;;;26.55;23.77;;;17.90;99.90;;;;;;5097561;28;20519;-67
2022/08/16 03:53:37;;;;;;;31.30;25.80;;;17.90;99.90;;;;;;5097775;28;20039;-67
2022/08/16 03:56:03;;;;;;;28.13;25.08;;;17.90;99.90;;;;;;5115647;28;20040;-67
2022/08/16 03:58:29;;;;;;;29.45;26.30;;;17.90;99.90;;;;;;5097548;28;20031;-67
2022/08/16 04:00:55;;;;;;;29.35;26.00;;;17.90;99.90;;;;;;5080418;28;20475;-67
2022/08/16 04:03:21;;;;;;;29.50;25.45;;;17.80;99.90;;;;;;5115491;28;20048;-67
2022/08/16 04:05:50;;;;;;;32.45;25.83;;;17.80;99.90;;;;;;5115439;28;20044;-67
2022/08/16 04:08:20;;;;;;;32.58;27.00;;;17.80;99.90;;;;;;5094456;28;20044;-66
2022/08/16 04:10:47;;;;;;;28.08;25.13;;;17.80;99.90;;;;;;5080089;28;20383;-67
2022/08/16 04:13:13;;;;;;;29.58;25.75;;;17.80;99.90;;;;;;5097456;28;20130;-66
2022/08/16 04:15:40;;;;;;;30.60;25.58;;;17.80;99.90;;;;;;5115459;28;20563;-67
2022/08/16 04:18:06;;;;;;;29.88;25.27;;;17.80;99.90;;;;;;5115426;28;20035;-67
2022/08/16 04:20:33;;;;;;;29.42;25.50;;;17.80;99.90;;;;;;5114097;28;20067;-67
2022/08/16 04:22:59;;;;;;;29.92;24.75;;;17.80;99.90;;;;;;5113805;28;20074;-67
2022/08/16 04:25:27;;;;;;;28.92;24.88;;;17.70;99.90;;;;;;5096985;28;20044;-67
2022/08/16 04:27:52;;;;;;;34.47;27.42;;;17.80;99.90;;;;;;5113811;28;20484;-66
2022/08/16 04:30:21;;;;;;;30.50;26.67;;;17.70;99.90;;;;;;5096976;28;20043;-67
2022/08/16 04:32:47;;;;;;;31.00;26.35;;;17.80;99.90;;;;;;5114150;28;20078;-67
2022/08/16 04:35:17;;;;;;;32.42;27.10;;;17.80;99.90;;;;;;5113657;28;20047;-67
2022/08/16 04:37:44;;;;;;;30.60;26.55;;;17.80;99.90;;;;;;5095089;28;20046;-67
2022/08/16 04:40:12;;;;;;;31.70;26.73;;;17.80;99.90;;;;;;5113477;28;20472;-67
2022/08/16 04:42:39;;;;;;;31.05;26.77;;;17.80;99.90;;;;;;5113641;28;20035;-67
2022/08/16 04:45:12;;;;;;;30.33;25.52;;;17.80;99.90;;;;;;5114904;28;20111;-67
2022/08/16 04:47:39;;;;;;;31.30;27.42;;;17.80;99.90;;;;;;5113511;28;20044;-67
2022/08/16 04:50:11;;;;;;;30.02;26.83;;;17.80;99.90;;;;;;5113371;28;20050;-66
2022/08/16 04:52:37;;;;;;;32.33;27.15;;;17.70;99.90;;;;;;5113621;28;20043;-67
2022/08/16 04:55:10;;;;;;;32.70;27.48;;;17.80;99.90;;;;;;5114620;28;20491;-67
2022/08/16 04:57:36;;;;;;;33.42;26.52;;;17.80;99.90;;;;;;5113184;28;20526;-67
2022/08/16 05:00:07;;;;;;;29.27;26.17;;;17.80;99.90;;;;;;5114432;28;20349;-66
2022/08/16 05:02:33;;;;;;;29.80;26.35;;;17.80;99.90;;;;;;5113203;28;20043;-66
2022/08/16 05:04:58;;;;;;;32.13;27.42;;;17.80;99.90;;;;;;5096345;28;20035;-67
2022/08/16 05:07:24;;;;;;;34.75;26.40;;;17.80;99.90;;;;;;5096036;28;20399;-66
2022/08/16 05:09:50;;;;;;;36.20;27.63;;;17.80;99.90;;;;;;5092667;28;20416;-66
2022/08/16 05:12:16;;;;;;;29.80;26.63;;;17.90;99.90;;;;;;5095335;28;20086;-66
2022/08/16 05:14:42;;;;;;;30.25;26.92;;;18.00;99.90;;;;;;5094960;28;20040;-67
2022/08/16 05:17:07;;;;;;;34.13;27.45;;;18.00;99.90;;;;;;5095202;28;20031;-66
2022/08/16 05:19:33;;;;;;;29.92;26.52;;;18.10;99.90;;;;;;5077430;28;20385;-66
2022/08/16 05:21:59;;;;;;;31.98;26.38;;;18.20;99.90;;;;;;5112059;28;20407;-67
2022/08/16 05:24:25;;;;;;;33.22;27.48;;;18.20;99.90;;;;;;5113026;28;20039;-66
2022/08/16 05:26:51;;;;;;;30.77;26.70;;;18.20;99.90;;;;;;5111696;28;20051;-67
2022/08/16 05:29:17;;;;;;;34.28;26.35;;;18.30;99.90;;;;;;5111803;28;20049;-67
2022/08/16 05:31:42;;;;;;;32.05;26.30;;;18.40;99.90;;;;;;5111702;28;20052;-66
2022/08/16 05:34:08;;;;;;;32.00;26.58;;;18.40;99.90;;;;;;5112820;28;20040;-67
2022/08/16 05:36:34;;;;;;;32.97;26.42;;;18.50;99.90;;;;;;5112885;28;20036;-67
2022/08/16 05:39:00;;;;;;;32.65;25.92;;;18.60;99.90;;;;;;5110832;28;20111;-67
2022/08/16 05:41:26;;;;;;;29.30;24.88;;;18.60;99.90;;;;;;5077711;28;20039;-67
2022/08/16 05:43:51;;;;;;;28.88;25.75;;;18.70;99.90;;;;;;5112933;28;20089;-67
2022/08/16 05:46:18;;;;;;;28.80;25.55;;;18.80;99.90;;;;;;5094839;28;20471;-67
2022/08/16 05:48:45;;;;;;;29.52;26.30;;;18.80;99.90;;;;;;5113107;28;20040;-67
2022/08/16 05:51:11;;;;;;;27.50;23.33;;;18.90;99.90;;;;;;5094695;28;20138;-67
2022/08/16 05:53:37;;;;;;;32.28;24.90;;;19.00;99.90;;;;;;5094337;28;20581;-65
2022/08/16 05:56:03;;;;;;;27.60;24.40;;;19.10;99.90;;;;;;5094613;28;20043;-66
2022/08/16 05:58:28;;;;;;;29.98;25.90;;;19.10;99.90;;;;;;5094334;28;20055;-66
2022/08/16 06:00:55;;;;;;;30.40;26.08;;;19.20;99.90;;;;;;5094315;28;20036;-66
2022/08/16 06:03:21;;;;;;;30.50;25.15;;;19.30;99.90;;;;;;5094090;28;20126;-65
2022/08/16 06:05:47;;;;;;;28.35;25.35;;;19.40;99.90;;;;;;5094251;28;20131;-65
2022/08/16 06:08:13;;;;;;;28.80;25.05;;;19.50;99.90;;;;;;5091768;28;20073;-65
2022/08/16 06:10:38;;;;;;;28.83;24.42;;;19.60;99.90;;;;;;5092435;28;20055;-66
2022/08/16 06:13:04;;;;;;;27.75;24.25;;;19.70;99.90;;;;;;5092291;28;20134;-66
2022/08/16 06:15:30;;;;;;;28.02;25.05;;;19.80;99.90;;;;;;5093835;28;20118;-65
2022/08/16 06:17:57;;;;;;;27.55;24.42;;;20.00;99.90;;;;;;5112000;28;20036;-64
2022/08/16 06:20:26;;;;;;;27.80;25.02;;;20.10;99.90;;;;;;5093765;28;20044;-65
2022/08/16 06:22:55;;;;;;;26.15;23.10;;;20.30;99.90;;;;;;5112059;28;20027;-65
2022/08/16 06:25:22;;;;;;;28.52;24.35;;;20.40;99.90;;;;;;5112001;28;20046;-66
2022/08/16 06:27:48;;;;;;;25.83;22.65;;;20.60;99.90;;;;;;5077782;28;20044;-66
2022/08/16 06:30:14;;;;;;;25.05;22.40;;;20.90;99.90;;;;;;5112817;28;20044;-67
2022/08/16 06:32:39;;;;;;;26.08;23.30;;;21.20;99.90;;;;;;5099119;28;20044;-68
2022/08/16 06:35:06;;;;;;;24.88;22.27;;;21.60;99.90;;;;;;5099000;28;20040;-70
2022/08/16 06:37:32;;;;;;;27.25;21.88;;;21.90;99.90;;;;;;5117419;28;20040;-68
2022/08/16 06:40:01;;;;;;;27.42;23.05;;;22.20;99.90;;;;;;5097942;28;20039;-69
2022/08/16 06:42:27;;;;;;;32.53;23.95;;;22.50;99.90;;;;;;5099266;28;20432;-68
2022/08/16 06:44:53;;;;;;;24.70;21.50;;;22.80;99.90;;;;;;5117285;28;20082;-69
2022/08/16 06:47:18;;;;;;;28.02;23.60;;;22.90;99.90;;;;;;5099165;28;20130;-69
2022/08/16 06:49:45;;;;;;;23.98;21.48;;;23.00;99.90;;;;;;5117482;28;20027;-69
2022/08/16 06:52:10;;;;;;;25.90;23.10;;;23.20;99.90;;;;;;5098966;28;20043;-69
2022/08/16 06:54:36;;;;;;;24.80;22.13;;;23.50;99.90;;;;;;5082387;28;20089;-68
2022/08/16 06:57:04;;;;;;;25.92;22.98;;;23.60;99.90;;;;;;5117496;28;20106;-69
2022/08/16 06:59:31;;;;;;;24.67;22.08;;;23.60;99.90;;;;;;5081823;28;20097;-69
2022/08/16 07:01:57;;;;;;;24.58;21.98;;;23.60;99.90;;;;;;5099017;28;20032;-69
2022/08/16 07:04:22;;;;;;;25.95;21.85;;;23.50;99.90;;;;;;5098684;28;20043;-69
2022/08/16 07:06:49;;;;;;;24.15;21.63;;;23.50;99.90;;;;;;5116945;28;20038;-68
2022/08/16 07:09:15;;;;;;;24.65;21.33;;;23.50;99.90;;;;;;5114835;28;20090;-69
2022/08/16 07:11:41;;;;;;;24.05;21.48;;;23.60;99.90;;;;;;5116993;28;20128;-69
2022/08/16 07:14:07;;;;;;;24.05;21.50;;;23.70;99.90;;;;;;5098548;28;20048;-69
2022/08/16 07:16:33;;;;;;;24.02;21.27;;;23.80;99.90;;;;;;5098353;28;20185;-69
2022/08/16 07:18:59;;;;;;;24.33;21.88;;;24.00;99.90;;;;;;5098432;28;20075;-69
2022/08/16 07:21:25;;;;;;;24.20;21.55;;;24.10;99.90;;;;;;5098416;28;20156;-69
2022/08/16 07:23:52;;;;;;;23.33;20.63;;;24.30;99.90;;;;;;5098452;28;20380;-70
2022/08/16 07:26:22;;;;;;;25.50;21.10;;;24.50;99.90;;;;;;5116452;28;20129;-69
2022/08/16 07:28:48;;;;;;;27.08;19.75;;;24.60;99.90;;;;;;5098298;28;20096;-67
2022/08/16 07:31:14;;;;;;;22.17;20.02;;;24.70;99.90;;;;;;5116457;28;20050;-67
2022/08/16 07:33:41;;;;;;;24.58;20.42;;;24.70;99.90;;;;;;5116356;28;20388;-67
2022/08/16 07:36:08;;;;;;;22.80;20.00;;;24.70;99.90;;;;;;5098074;28;20040;-67
2022/08/16 07:38:34;;;;;;;23.85;21.55;;;24.80;99.90;;;;;;5095632;28;20040;-68
2022/08/16 07:41:01;;;;;;;23.35;20.85;;;24.80;99.90;;;;;;5097808;28;20047;-68
2022/08/16 07:43:27;;;;;;;24.95;22.38;;;24.90;99.90;;;;;;5096695;28;20047;-68
2022/08/16 07:45:54;;;;;;;23.42;21.05;;;24.90;99.90;;;;;;5097760;28;20039;-69
2022/08/16 07:48:21;;;;;;;22.42;20.23;;;25.00;99.90;;;;;;5097572;28;20616;-69
2022/08/16 07:50:47;;;;;;;23.65;21.35;;;25.10;99.90;;;;;;5097583;28;20047;-69
2022/08/16 07:53:13;;;;;;;22.95;20.75;;;25.20;99.90;;;;;;5115940;28;20047;-69
2022/08/16 07:55:40;;;;;;;24.92;20.20;;;25.30;99.90;;;;;;5080787;28;20039;-69
2022/08/16 07:58:06;;;;;;;23.95;21.65;;;25.40;99.90;;;;;;5080470;28;20044;-69
2022/08/16 08:00:32;;;;;;;23.50;21.17;;;25.50;99.90;;;;;;5097438;28;20051;-68
2022/08/16 08:02:59;;;;;;;24.90;22.27;;;25.60;99.90;;;;;;5097670;28;20363;-68
2022/08/16 08:05:26;;;;;;;23.60;21.30;;;25.70;99.90;;;;;;5097274;28;20040;-69
2022/08/16 08:07:52;;;;;;;24.70;22.25;;;25.90;99.90;;;;;;5113330;28;20039;-69
2022/08/16 08:10:19;;;;;;;23.77;21.20;;;26.10;99.90;;;;;;5115186;28;20055;-68
2022/08/16 08:12:50;;;;;;;24.42;21.88;;;26.30;99.90;;;;;;5097282;28;20472;-69
2022/08/16 08:15:17;;;;;;;24.25;21.75;;;26.50;99.90;;;;;;5115413;28;20048;-69
2022/08/16 08:17:43;;;;;;;23.05;20.48;;;26.70;99.90;;;;;;5115541;28;20035;-70
2022/08/16 08:20:13;;;;;;;23.88;21.67;;;26.90;99.90;;;;;;5096985;28;20043;-72
2022/08/16 08:22:39;;;;;;;24.45;21.90;;;27.10;99.90;;;;;;5097181;28;20144;-70
2022/08/16 08:25:06;;;;;;;22.35;19.52;;;27.30;99.90;;;;;;5097218;28;20597;-70
2022/08/16 08:27:32;;;;;;;27.27;19.85;;;27.60;99.90;;;;;;5115593;28;20027;-72
2022/08/16 08:29:58;;;;;;;20.67;18.58;;;27.80;99.90;;;;;;5115214;28;20040;-71
2022/08/16 08:32:26;;;;;;;20.33;18.15;;;28.00;99.90;;;;;;5097074;28;20122;-71
2022/08/16 08:34:52;;;;;;;23.17;19.95;;;28.10;99.90;;;;;;5115267;28;20050;-71
2022/08/16 08:37:17;;;;;;;25.50;22.05;;;28.20;99.90;;;;;;5079851;28;20039;-70
2022/08/16 08:39:43;;;;;;;22.13;19.77;;;28.30;99.90;;;;;;5112507;28;20092;-69
2022/08/16 08:42:09;;;;;;;22.02;19.73;;;28.40;99.90;;;;;;5096894;28;20032;-69
2022/08/16 08:44:35;;;;;;;19.35;17.45;;;28.50;99.90;;;;;;5073503;28;20042;-69
2022/08/16 08:47:04;;;;;;;18.17;16.38;;;28.50;99.90;;;;;;5096181;28;20515;-69
2022/08/16 08:49:30;;;;;;;18.38;16.52;;;28.70;99.90;;;;;;5114521;28;20039;-69
2022/08/16 08:51:57;;;;;;;25.83;19.75;;;28.90;99.90;;;;;;5114396;28;20035;-69
2022/08/16 08:54:24;;;;;;;20.95;18.70;;;29.10;99.90;;;;;;5114260;28;20040;-69
2022/08/16 08:56:51;;;;;;;17.70;15.88;;;29.30;99.90;;;;;;5101691;28;20115;-69
2022/08/16 08:59:17;;;;;;;23.67;19.85;;;29.30;99.90;;;;;;5079529;28;20039;-67
2022/08/16 09:01:44;;;;;;;20.23;14.95;;;29.30;99.70;;;;;;5114111;28;20404;-69
2022/08/16 09:04:10;;;;;;;16.90;15.15;;;29.30;99.70;;;;;;5096013;28;20110;-68
2022/08/16 09:06:37;;;;;;;20.90;17.73;;;29.30;98.90;;;;;;5096094;28;20043;-68
2022/08/16 09:09:05;;;;;;;15.98;14.30;;;29.40;99.30;;;;;;5093517;28;20048;-68
2022/08/16 09:11:32;;;;;;;16.33;14.40;;;29.70;99.40;;;;;;5095908;28;20395;-69
2022/08/16 09:13:58;;;;;;;18.35;14.63;;;29.90;98.40;;;;;;5095222;28;20039;-69
2022/08/16 09:16:25;;;;;;;15.80;14.18;;;29.90;98.10;;;;;;5113098;28;20542;-69
2022/08/16 09:18:51;;;;;;;13.63;11.88;;;29.90;98.50;;;;;;5113032;28;20075;-72
2022/08/16 09:21:18;;;;;;;13.75;11.98;;;30.00;97.60;;;;;;5094704;28;20074;-70
2022/08/16 09:23:46;;;;;;;14.85;12.70;;;30.00;96.40;;;;;;5090931;28;20488;-70
2022/08/16 09:26:17;;;;;;;16.77;14.73;;;30.00;96.00;;;;;;5094576;28;20605;-70
2022/08/16 09:28:44;;;;;;;14.68;12.52;;;30.10;95.40;;;;;;5112650;28;20190;-71
2022/08/16 09:31:14;;;;;;;13.23;11.77;;;30.10;95.00;;;;;;5094364;28;20043;-70
2022/08/16 09:33:41;;;;;;;13.45;12.10;;;30.20;94.40;;;;;;5112537;28;20539;-70
2022/08/16 09:36:08;;;;;;;13.32;11.82;;;30.30;95.50;;;;;;5094221;28;20569;-70
2022/08/16 09:38:35;;;;;;;15.18;12.50;;;30.60;94.60;;;;;;5092117;28;20039;-70
2022/08/16 09:41:06;;;;;;;13.88;12.32;;;30.80;94.60;;;;;;5077118;28;20073;-72
2022/08/16 09:43:33;;;;;;;14.02;12.43;;;31.00;93.30;;;;;;5077388;28;20513;-70
2022/08/16 09:46:00;;;;;;;14.68;12.73;;;31.10;92.30;;;;;;5094236;28;20070;-70
2022/08/16 09:48:27;;;;;;;14.57;10.98;;;31.20;92.30;;;;;;5094205;28;20482;-70
2022/08/16 09:50:53;;;;;;;13.45;10.18;;;31.20;92.90;;;;;;5094153;28;20047;-69
2022/08/16 09:53:21;;;;;;;12.00;10.80;;;31.30;92.60;;;;;;5097238;28;20063;-69
2022/08/16 09:55:51;;;;;;;11.05;9.32;;;31.40;90.80;;;;;;5082149;28;20130;-71
2022/08/16 09:58:19;;;;;;;10.70;8.82;;;31.30;89.80;;;;;;5099013;28;20055;-70
2022/08/16 10:00:45;;;;;;;9.30;8.40;;;31.30;89.90;;;;;;5098591;28;20051;-71
2022/08/16 10:03:10;;;;;;;12.80;9.85;;;31.40;88.70;;;;;;5081926;28;20510;-69
2022/08/16 10:05:49;;;;;;;8.82;7.53;;;31.50;89.30;;;;;;5116086;28;20028;-68
2022/08/16 10:08:16;;;;;;;9.18;7.13;;;31.70;88.00;;;;;;5096430;28;20106;-69
2022/08/16 10:13:10;;;;;;;8.00;6.95;;;31.90;88.90;;;;;;5098484;28;20230;-69
2022/08/16 10:13:32;;;;;;;15.43;9.40;;;32.20;86.40;;;;;;5116150;28;20047;-69
2022/08/16 10:15:58;;;;;;;12.13;9.70;;;32.50;84.70;;;;;;5097941;28;20040;-68
2022/08/16 10:18:27;;;;;;;8.00;7.28;;;32.70;83.20;;;;;;5116442;28;20487;-69
2022/08/16 10:20:54;;;;;;;;;;;32.80;82.80;;;;;;5079785;28;20119;-67
2022/08/16 10:23:20;;;;;;;10.77;9.65;;;32.90;81.40;;;;;;5095445;28;19920;-68
2022/08/16 10:25:47;;;;;;;13.00;11.57;;;32.80;82.20;;;;;;5097718;28;20047;-70
2022/08/16 10:28:14;;;;;;;12.05;10.85;;;32.60;82.80;;;;;;5098959;28;20075;-72
2022/08/16 10:30:42;;;;;;;11.23;9.77;;;32.60;80.00;;;;;;5081721;28;20062;-69
2022/08/16 10:33:12;;;;;;;14.27;12.77;;;32.40;79.50;;;;;;5098334;28;20048;-69
2022/08/16 10:35:39;;;;;;;12.05;10.82;;;32.30;78.60;;;;;;5116732;28;20031;-69
2022/08/16 10:38:06;;;;;;;14.15;12.63;;;32.20;78.20;;;;;;5078393;28;20524;-69
2022/08/16 10:40:32;;;;;;;12.43;11.23;;;32.10;79.10;;;;;;5094788;28;20031;-70
2022/08/16 10:43:01;;;;;;;11.93;10.73;;;32.00;78.60;;;;;;5094871;28;20376;-70
2022/08/16 10:45:28;;;;;;;11.48;10.27;;;32.00;79.00;;;;;;5078029;28;20533;-70
2022/08/16 10:47:55;;;;;;;13.25;11.85;;;31.90;77.90;;;;;;5094772;28;20040;-68
2022/08/16 10:50:21;;;;;;;9.55;8.15;;;31.80;76.90;;;;;;5094476;28;20165;-70
2022/08/16 10:52:47;;;;;;;11.00;9.93;;;31.80;78.10;;;;;;5112792;28;20119;-69
2022/08/16 10:55:14;;;;;;;8.73;7.70;;;31.90;78.30;;;;;;5094579;28;20050;-69
2022/08/16 10:57:40;;;;;;;10.40;8.98;;;32.10;77.90;;;;;;5078054;28;20066;-69
2022/08/16 11:00:13;;;;;;;11.07;9.73;;;32.20;75.50;;;;;;5113001;28;20181;-68
2022/08/16 11:02:39;;;;;;;8.27;7.10;;;32.30;74.00;;;;;;5094678;28;20047;-68
2022/08/16 11:05:10;;;;;;;9.48;6.72;;;32.30;74.20;;;;;;5094888;28;20517;-69
2022/08/16 11:07:45;;;;;;;11.55;7.03;;;32.40;74.90;;;;;;5071388;28;20075;-71
2022/08/16 11:10:13;;;;;;;8.27;6.22;;;32.70;72.60;;;;;;5092659;28;20063;-69
2022/08/16 11:12:39;;;;;;;8.38;6.22;;;32.80;74.40;;;;;;5094498;28;20042;-69
2022/08/16 11:15:05;;;;;;;8.88;6.45;;;32.90;74.30;;;;;;5077772;28;20036;-70
2022/08/16 11:17:32;;;;;;;7.68;6.72;;;33.00;72.70;;;;;;5112795;28;20543;-68
2022/08/16 11:19:58;;;;;;;9.32;5.72;;;33.00;70.40;;;;;;5116340;28;20036;-67
2022/08/16 11:22:25;;;;;;;8.27;5.93;;;32.80;70.80;;;;;;5097918;28;20171;-68
2022/08/16 11:24:51;;;;;;;7.30;6.20;;;32.70;71.80;;;;;;5116401;28;20038;-67
2022/08/16 11:27:20;;;;;;;8.88;6.40;;;32.70;72.40;;;;;;5115229;28;20039;-67
2022/08/16 11:29:49;;;;;;;9.40;5.93;;;32.50;70.50;;;;;;5098408;28;20035;-69
2022/08/16 11:32:16;;;;;;;8.45;5.35;;;32.30;71.00;;;;;;5116316;28;20040;-69
2022/08/16 11:34:42;;;;;;;9.93;6.43;;;32.20;72.10;;;;;;5115252;28;20035;-69
2022/08/16 11:37:08;;;;;;;11.77;6.50;;;32.20;71.50;;;;;;5114961;28;20122;-68
2022/08/16 11:39:34;;;;;;;6.90;6.20;;;32.30;72.50;;;;;;5112574;28;20123;-67
2022/08/16 11:42:00;;;;;;;8.25;6.60;;;32.20;73.90;;;;;;5097652;28;20047;-68
2022/08/16 11:44:26;;;;;;;8.68;6.97;;;32.20;72.10;;;;;;5112542;28;20038;-66
2022/08/16 11:46:52;;;;;;;8.20;7.38;;;32.00;71.00;;;;;;5114670;28;20115;-66
2022/08/16 11:49:18;;;;;;;10.57;7.32;;;31.70;71.30;;;;;;5115980;28;20063;-66
2022/08/16 11:51:45;;;;;;;7.82;6.82;;;31.40;73.00;;;;;;5114311;28;20059;-66
2022/08/16 11:54:11;;;;;;;11.55;7.38;;;31.30;73.60;;;;;;5114517;28;20047;-68
2022/08/16 11:56:37;;;;;;;9.52;8.02;;;31.30;74.50;;;;;;5097394;28;20047;-67
2022/08/16 11:59:04;;;;;;;8.05;7.25;;;31.30;74.00;;;;;;5097615;28;20050;-67
2022/08/16 12:01:29;;;;;;;9.50;7.40;;;31.20;75.50;;;;;;5114341;28;20039;-67
2022/08/16 12:03:55;;;;;;;10.23;6.53;;;31.20;74.10;;;;;;5114219;28;20380;-66
2022/08/16 12:06:21;;;;;;;12.45;8.70;;;31.30;73.90;;;;;;5114078;28;20035;-66
2022/08/16 12:08:48;;;;;;;10.25;8.20;;;31.30;73.10;;;;;;5112082;28;20040;-67
2022/08/16 12:11:15;;;;;;;9.88;8.50;;;31.30;71.60;;;;;;5113999;28;20193;-67
2022/08/16 12:13:42;;;;;;;10.48;8.25;;;31.10;71.40;;;;;;5097271;28;20059;-67
2022/08/16 12:16:08;;;;;;;13.90;10.10;;;30.90;73.10;;;;;;5096936;28;20039;-67
2022/08/16 12:18:35;;;;;;;12.70;9.95;;;30.80;74.30;;;;;;5096996;28;20040;-67
2022/08/16 12:21:01;;;;;;;13.73;10.45;;;30.70;74.60;;;;;;5096812;28;20036;-66
2022/08/16 12:23:28;;;;;;;13.43;10.65;;;30.60;74.10;;;;;;5096966;28;20510;-67
2022/08/16 12:25:53;;;;;;;11.35;10.25;;;30.40;75.70;;;;;;5097053;28;20514;-66
2022/08/16 12:28:20;;;;;;;18.42;15.02;;;30.20;75.80;;;;;;5079536;28;20040;-66
2022/08/16 12:30:46;;;;;;;18.38;16.48;;;29.90;77.20;;;;;;5114928;28;20399;-66